createdAt,value
2023-01-28T00:01:25.949Z,99562.53
2023-01-28T00:03:53.429Z,99560.38
2023-01-28T00:06:20.829Z,99565.53
2023-01-28T00:08:48.281Z,99569.75
2023-01-28T00:11:15.734Z,99576.16
2023-01-28T00:13:43.344Z,99569.72
2023-01-28T00:16:10.643Z,99570.59
2023-01-28T00:18:38.142Z,99574.75
2023-01-28T00:21:06.423Z,99582.84
2023-01-28T00:23:35.084Z,99577.38
2023-01-28T00:26:03.729Z,99570.66
2023-01-28T00:28:30.884Z,99575.78
2023-01-28T00:30:58.165Z,99580.91
2023-01-28T00:33:29.428Z,99580.84
2023-01-28T00:36:00.377Z,99573.56
2023-01-28T00:38:28.430Z,99577.59
2023-01-28T00:40:55.659Z,99585.66
2023-01-28T00:43:23.927Z,99579.03
2023-01-28T00:45:51.400Z,99579.38
2023-01-28T00:48:18.596Z,99583.47
2023-01-28T00:50:46.173Z,99579.56
2023-01-28T00:53:14.417Z,99588.44
2023-01-28T00:55:41.603Z,99592.09
2023-01-28T00:58:09.187Z,99585.25
2023-01-28T01:00:36.686Z,99589.94
2023-01-28T01:03:03.851Z,99588.34
2023-01-28T01:05:31.038Z,99592.78
2023-01-28T01:07:58.618Z,99593.38
2023-01-28T01:10:25.972Z,99590.00
2023-01-28T01:12:53.131Z,99589.63
2023-01-28T01:15:20.736Z,99594.28
2023-01-28T01:17:48.761Z,99594.03
2023-01-28T01:20:17.313Z,99594.22
2023-01-28T01:22:44.912Z,99595.91
2023-01-28T01:25:13.310Z,99593.03
2023-01-28T01:27:41.418Z,99586.19
2023-01-28T01:30:09.576Z,99586.72
2023-01-28T01:32:36.791Z,99590.28
2023-01-28T01:35:06.755Z,99592.03
2023-01-28T01:37:34.880Z,99588.97
2023-01-28T01:40:03.055Z,99593.75
2023-01-28T01:42:30.683Z,99594.66
2023-01-28T01:45:08.185Z,99598.97
2023-01-28T01:47:42.419Z,99596.25
2023-01-28T01:50:12.977Z,99596.06
2023-01-28T01:52:40.174Z,99592.31
2023-01-28T01:55:09.490Z,99593.06
2023-01-28T01:57:37.359Z,99599.34
2023-01-28T02:00:06.291Z,99605.31
2023-01-28T02:02:41.748Z,99597.87
2023-01-28T02:05:09.899Z,99602.56
2023-01-28T02:07:37.590Z,99609.69
2023-01-28T02:10:04.889Z,99601.59
2023-01-28T02:12:35.199Z,99595.50
2023-01-28T02:15:09.717Z,99601.81
2023-01-28T02:17:37.270Z,99605.44
2023-01-28T02:20:12.025Z,99605.66
2023-01-28T02:22:39.902Z,99605.09
2023-01-28T02:25:16.294Z,99602.66
2023-01-28T02:27:58.279Z,99601.38
2023-01-28T02:30:27.140Z,99606.59
2023-01-28T02:33:05.358Z,99594.12
2023-01-28T02:35:32.436Z,99599.03
2023-01-28T02:38:00.974Z,99599.03
2023-01-28T02:40:34.185Z,99595.09
2023-01-28T02:43:01.650Z,99594.66
2023-01-28T02:45:54.538Z,99591.56
2023-01-28T02:48:22.517Z,99592.72
2023-01-28T02:50:51.632Z,99586.84
2023-01-28T02:53:44.035Z,99590.37
2023-01-28T02:56:30.004Z,99593.25
2023-01-28T02:59:27.021Z,99595.84
2023-01-28T03:01:58.468Z,99594.44
2023-01-28T03:04:27.859Z,99596.44
2023-01-28T03:06:56.021Z,99595.84
2023-01-28T03:09:24.647Z,99589.00
2023-01-28T03:12:23.289Z,99594.38
2023-01-28T03:15:09.950Z,99594.84
2023-01-28T03:18:06.165Z,99600.94
2023-01-28T03:21:07.319Z,99602.28
2023-01-28T03:24:13.099Z,99607.25
2023-01-28T03:27:22.807Z,99608.47
2023-01-28T03:30:10.427Z,99601.31
2023-01-28T03:32:56.698Z,99604.41
2023-01-28T03:35:43.138Z,99603.59
2023-01-28T03:38:21.012Z,99603.59
2023-01-28T03:40:59.780Z,99603.31
2023-01-28T03:43:27.350Z,99602.78
2023-01-28T03:45:55.668Z,99601.47
2023-01-28T03:48:24.390Z,99610.72
2023-01-28T03:50:52.393Z,99609.91
2023-01-28T03:53:19.611Z,99610.97
2023-01-28T03:55:48.231Z,99615.34
2023-01-28T03:58:17.952Z,99612.16
2023-01-28T04:00:45.229Z,99617.63
2023-01-28T04:03:16.918Z,99613.59
2023-01-28T04:05:45.615Z,99620.84
2023-01-28T04:08:13.771Z,99611.63
2023-01-28T04:10:41.170Z,99614.28
2023-01-28T04:13:08.912Z,99612.59
2023-01-28T04:15:36.625Z,99611.47
2023-01-28T04:18:03.836Z,99611.00
2023-01-28T04:20:31.548Z,99608.34
2023-01-28T04:22:59.142Z,99616.88
2023-01-28T04:25:26.346Z,99615.88
2023-01-28T04:27:54.037Z,99618.44
2023-01-28T04:30:21.644Z,99621.78
2023-01-28T04:32:50.598Z,99625.84
2023-01-28T04:35:18.115Z,99617.91
2023-01-28T04:37:45.703Z,99629.59
2023-01-28T04:40:13.304Z,99627.63
2023-01-28T04:42:40.563Z,99626.78
2023-01-28T04:45:08.754Z,99623.03
2023-01-28T04:47:36.001Z,99620.84
2023-01-28T04:50:03.404Z,99625.06
2023-01-28T04:52:32.218Z,99625.38
2023-01-28T04:55:02.388Z,99629.75
2023-01-28T04:57:30.130Z,99636.91
2023-01-28T04:59:57.575Z,99632.03
2023-01-28T05:02:24.781Z,99630.84
2023-01-28T05:04:52.568Z,99637.03
2023-01-28T05:07:21.839Z,99642.94
2023-01-28T05:09:49.052Z,99639.97
2023-01-28T05:12:16.681Z,99647.03
2023-01-28T05:14:44.674Z,99647.22
2023-01-28T05:17:12.369Z,99648.25
2023-01-28T05:19:39.822Z,99652.81
2023-01-28T05:22:08.232Z,99651.28
2023-01-28T05:24:35.619Z,99654.75
2023-01-28T05:27:03.837Z,99653.75
2023-01-28T05:29:31.293Z,99655.56
2023-01-28T05:31:59.573Z,99648.94
2023-01-28T05:34:26.862Z,99650.44
2023-01-28T05:36:54.885Z,99649.97
2023-01-28T05:39:23.091Z,99656.66
2023-01-28T05:41:50.411Z,99656.75
2023-01-28T05:44:17.829Z,99653.13
2023-01-28T05:46:46.751Z,99654.44
2023-01-28T05:49:14.523Z,99657.25
2023-01-28T05:51:45.615Z,99662.09
2023-01-28T05:54:14.982Z,99661.97
2023-01-28T05:56:42.425Z,99664.53
2023-01-28T05:59:13.330Z,99667.13
2023-01-28T06:01:41.443Z,99662.97
2023-01-28T06:04:08.974Z,99667.75
2023-01-28T06:06:36.101Z,99667.47
2023-01-28T06:09:04.731Z,99665.00
2023-01-28T06:11:32.343Z,99668.72
2023-01-28T06:13:59.607Z,99669.75
2023-01-28T06:16:26.866Z,99673.63
2023-01-28T06:18:54.443Z,99675.06
2023-01-28T06:21:21.581Z,99677.78
2023-01-28T06:23:48.780Z,99680.37
2023-01-28T06:26:16.267Z,99685.84
2023-01-28T06:28:44.204Z,99694.09
2023-01-28T06:31:11.432Z,99694.09
2023-01-28T06:33:38.946Z,99699.16
2023-01-28T06:36:09.036Z,99705.78
2023-01-28T06:38:36.224Z,99704.66
2023-01-28T06:41:03.664Z,99704.06
2023-01-28T06:43:30.909Z,99703.72
2023-01-28T06:45:58.103Z,99715.09
2023-01-28T06:48:26.452Z,99721.59
2023-01-28T06:50:53.672Z,99721.94
2023-01-28T06:53:21.461Z,99720.63
2023-01-28T06:55:48.957Z,99731.22
2023-01-28T06:58:16.143Z,99729.34
2023-01-28T07:00:43.496Z,99735.25
2023-01-28T07:03:11.038Z,99736.31
2023-01-28T07:05:38.950Z,99738.69
2023-01-28T07:08:06.129Z,99734.78
2023-01-28T07:10:33.604Z,99741.19
2023-01-28T07:13:00.750Z,99742.34
2023-01-28T07:15:28.022Z,99743.31
2023-01-28T07:17:55.488Z,99744.81
2023-01-28T07:20:22.664Z,99746.97
2023-01-28T07:22:49.857Z,99751.16
2023-01-28T07:25:17.361Z,99753.91
2023-01-28T07:27:48.448Z,99760.38
2023-01-28T07:30:16.161Z,99764.66
2023-01-28T07:32:43.995Z,99765.13
2023-01-28T07:35:11.147Z,99765.78
2023-01-28T07:37:38.311Z,99758.66
2023-01-28T07:40:06.085Z,99762.66
2023-01-28T07:42:33.375Z,99763.13
2023-01-28T07:45:05.113Z,99771.84
2023-01-28T07:47:32.819Z,99772.94
2023-01-28T07:50:00.404Z,99766.25
2023-01-28T07:52:27.535Z,99765.06
2023-01-28T07:54:54.977Z,99764.75
2023-01-28T07:57:24.826Z,99761.72
2023-01-28T07:59:52.078Z,99764.69
2023-01-28T08:02:19.566Z,99772.06
2023-01-28T08:04:47.437Z,99770.88
2023-01-28T08:07:14.688Z,99772.94
2023-01-28T08:09:41.888Z,99772.09
2023-01-28T08:12:09.293Z,99778.38
2023-01-28T08:14:36.883Z,99771.87
2023-01-28T08:17:04.064Z,99780.44
2023-01-28T08:19:31.475Z,99778.81
2023-01-28T08:21:58.663Z,99773.50
2023-01-28T08:24:25.881Z,99772.81
2023-01-28T08:26:53.361Z,99770.00
2023-01-28T08:29:20.629Z,99773.28
2023-01-28T08:31:47.841Z,99778.81
2023-01-28T08:34:15.297Z,99781.94
2023-01-28T08:36:42.508Z,99774.94
2023-01-28T08:39:09.666Z,99780.19
2023-01-28T08:41:37.117Z,99791.50
2023-01-28T08:44:04.296Z,99791.91
2023-01-28T08:46:31.517Z,99797.69
2023-01-28T08:48:59.015Z,99799.38
2023-01-28T08:51:26.196Z,99798.53
2023-01-28T08:53:53.369Z,99806.72
2023-01-28T08:56:20.814Z,99804.44
2023-01-28T08:58:47.999Z,99803.47
2023-01-28T09:01:15.357Z,99805.56
2023-01-28T09:03:42.857Z,99803.69
2023-01-28T09:06:10.100Z,99810.72
2023-01-28T09:08:37.305Z,99811.00
2023-01-28T09:11:04.752Z,99814.03
2023-01-28T09:13:32.026Z,99815.25
2023-01-28T09:15:59.250Z,99819.16
2023-01-28T09:18:26.701Z,99825.72
2023-01-28T09:20:53.957Z,99823.66
2023-01-28T09:23:21.099Z,99823.28
2023-01-28T09:25:48.570Z,99825.69
2023-01-28T09:28:15.730Z,99832.66
2023-01-28T09:30:42.929Z,99830.09
2023-01-28T09:33:10.353Z,99831.69
2023-01-28T09:35:37.572Z,99839.28
2023-01-28T09:38:05.780Z,99828.69
2023-01-28T09:40:37.407Z,99830.34
2023-01-28T09:43:04.581Z,99833.72
2023-01-28T09:45:39.183Z,99827.91
2023-01-28T09:48:07.128Z,99830.03
2023-01-28T09:50:38.734Z,99835.38
2023-01-28T09:53:07.918Z,99822.59
2023-01-28T09:55:39.971Z,99828.13
2023-01-28T09:58:11.357Z,99835.91
2023-01-28T10:00:59.149Z,99828.84
2023-01-28T10:03:39.190Z,99835.53
2023-01-28T10:06:06.434Z,99829.91
2023-01-28T10:08:43.030Z,99827.69
2023-01-28T10:11:16.767Z,99818.19
2023-01-28T10:13:56.296Z,99816.34
2023-01-28T10:16:26.595Z,99811.50
2023-01-28T10:18:55.444Z,99819.06
2023-01-28T10:21:27.434Z,99818.59
2023-01-28T10:24:00.121Z,99825.09
2023-01-28T10:26:34.832Z,99822.03
2023-01-28T10:29:13.870Z,99820.28
2023-01-28T10:31:54.515Z,99825.63
2023-01-28T10:34:22.119Z,99816.41
2023-01-28T10:36:49.472Z,99813.53
2023-01-28T10:39:17.305Z,99822.47
2023-01-28T10:41:56.557Z,99821.66
2023-01-28T10:44:32.740Z,99822.41
2023-01-28T10:47:02.073Z,99824.16
2023-01-28T10:49:29.735Z,99826.78
2023-01-28T10:51:57.090Z,99821.78
2023-01-28T10:54:25.577Z,99826.31
2023-01-28T10:57:02.369Z,99821.00
2023-01-28T10:59:30.568Z,99822.62
2023-01-28T11:02:19.439Z,99819.41
2023-01-28T11:04:46.936Z,99821.09
2023-01-28T11:07:21.063Z,99821.44
2023-01-28T11:09:49.495Z,99829.94
2023-01-28T11:12:20.671Z,99824.59
2023-01-28T11:14:52.266Z,99829.22
2023-01-28T11:17:20.421Z,99825.41
2023-01-28T11:19:47.639Z,99818.00
2023-01-28T11:22:26.859Z,99817.37
2023-01-28T11:24:54.323Z,99815.88
2023-01-28T11:27:22.970Z,99820.75
2023-01-28T11:29:50.185Z,99814.12
2023-01-28T11:32:19.039Z,99811.69
2023-01-28T11:34:50.468Z,99808.72
2023-01-28T11:37:18.670Z,99808.28
2023-01-28T11:39:45.826Z,99812.41
2023-01-28T11:42:14.751Z,99811.22
2023-01-28T11:44:42.203Z,99807.19
2023-01-28T11:47:25.711Z,99811.09
2023-01-28T11:50:12.012Z,99809.03
2023-01-28T11:53:05.395Z,99811.37
2023-01-28T11:55:40.417Z,99811.72
2023-01-28T11:58:26.356Z,99803.44
2023-01-28T12:00:53.792Z,99803.94
2023-01-28T12:03:40.703Z,99799.72
2023-01-28T12:06:27.013Z,99800.59
2023-01-28T12:09:12.878Z,99800.47
2023-01-28T12:12:05.206Z,99799.06
2023-01-28T12:14:38.695Z,99798.78
2023-01-28T12:17:22.118Z,99797.31
2023-01-28T12:19:49.535Z,99787.56
2023-01-28T12:22:21.383Z,99793.97
2023-01-28T12:24:57.616Z,99794.66
2023-01-28T12:27:43.080Z,99796.47
2023-01-28T12:30:15.144Z,99789.19
2023-01-28T12:32:49.185Z,99790.78
2023-01-28T12:35:25.004Z,99785.47
2023-01-28T12:37:52.409Z,99789.44
2023-01-28T12:40:49.168Z,99798.84
2023-01-28T12:43:21.599Z,99793.28
2023-01-28T12:45:56.042Z,99797.31
2023-01-28T12:48:32.253Z,99802.44
2023-01-28T12:51:04.247Z,99797.06
2023-01-28T12:53:43.261Z,99803.03
2023-01-28T12:56:30.648Z,99801.09
2023-01-28T12:59:05.771Z,99798.97
2023-01-28T13:01:39.046Z,99802.78
2023-01-28T13:04:09.239Z,99798.69
2023-01-28T13:06:44.940Z,99803.84
2023-01-28T13:09:15.423Z,99803.87
2023-01-28T13:11:42.688Z,99806.19
2023-01-28T13:14:09.845Z,99805.34
2023-01-28T13:16:38.161Z,99810.63
2023-01-28T13:19:17.614Z,99812.84
2023-01-28T13:21:49.357Z,99818.06
2023-01-28T13:24:16.869Z,99816.47
2023-01-28T13:26:45.003Z,99822.62
2023-01-28T13:29:15.578Z,99814.41
2023-01-28T13:31:43.796Z,99821.41
2023-01-28T13:34:30.028Z,99824.66
2023-01-28T13:36:57.505Z,99825.75
2023-01-28T13:39:25.455Z,99830.56
2023-01-28T13:41:53.421Z,99823.75
2023-01-28T13:44:27.076Z,99831.41
2023-01-28T13:46:55.765Z,99842.50
2023-01-28T13:49:28.095Z,99840.25
2023-01-28T13:52:14.977Z,99844.16
2023-01-28T13:54:53.459Z,99840.53
2023-01-28T13:57:32.707Z,99843.50
2023-01-28T14:00:07.525Z,99855.22
2023-01-28T14:02:51.673Z,99849.06
2023-01-28T14:05:31.903Z,99851.97
2023-01-28T14:08:09.788Z,99856.09
2023-01-28T14:10:43.507Z,99851.50
2023-01-28T14:13:20.606Z,99854.66
2023-01-28T14:15:58.996Z,99854.81
2023-01-28T14:18:27.040Z,99861.84
2023-01-28T14:20:55.510Z,99850.81
2023-01-28T14:23:23.059Z,99861.03
2023-01-28T14:25:50.176Z,99862.72
2023-01-28T14:28:24.259Z,99859.38
2023-01-28T14:30:55.120Z,99867.88
2023-01-28T14:33:22.736Z,99880.53
2023-01-28T14:35:49.972Z,99876.56
2023-01-28T14:38:18.106Z,99875.69
2023-01-28T14:40:45.576Z,99880.50
2023-01-28T14:43:14.235Z,99876.56
2023-01-28T14:45:56.761Z,99881.19
2023-01-28T14:48:46.413Z,99878.66
2023-01-28T14:51:32.642Z,99883.34
2023-01-28T14:54:05.853Z,99885.97
2023-01-28T14:56:36.635Z,99889.25
2023-01-28T14:59:23.358Z,99891.84
2023-01-28T15:01:54.563Z,99891.19
2023-01-28T15:04:26.346Z,99895.09
2023-01-28T15:06:53.653Z,99895.37
2023-01-28T15:09:21.185Z,99892.31
2023-01-28T15:11:49.425Z,99896.53
2023-01-28T15:14:19.622Z,99899.16
2023-01-28T15:16:49.800Z,99908.41
2023-01-28T15:19:17.581Z,99904.09
2023-01-28T15:21:45.514Z,99906.38
2023-01-28T15:24:14.313Z,99916.19
2023-01-28T15:26:45.272Z,99915.75
2023-01-28T15:29:25.894Z,99925.00
2023-01-28T15:31:53.532Z,99917.50
2023-01-28T15:34:20.749Z,99924.84
2023-01-28T15:36:49.584Z,99932.44
2023-01-28T15:39:18.682Z,99930.72
2023-01-28T15:41:47.798Z,99938.63
2023-01-28T15:44:16.384Z,99924.28
2023-01-28T15:46:43.811Z,99935.94
2023-01-28T15:49:14.834Z,99942.50
2023-01-28T15:51:42.038Z,99939.44
2023-01-28T15:54:09.556Z,99942.50
2023-01-28T15:56:36.864Z,99950.31
2023-01-28T15:59:10.803Z,99950.03
2023-01-28T16:01:38.306Z,99950.88
2023-01-28T16:04:06.586Z,99949.13
2023-01-28T16:06:34.974Z,99954.25
2023-01-28T16:09:03.454Z,99954.87
2023-01-28T16:11:32.646Z,99964.31
2023-01-28T16:14:00.016Z,99965.50
2023-01-28T16:16:27.379Z,99965.81
2023-01-28T16:18:55.983Z,99969.50
2023-01-28T16:21:32.126Z,99978.75
2023-01-28T16:23:59.852Z,99977.25
2023-01-28T16:26:27.943Z,99970.87
2023-01-28T16:28:55.299Z,99979.09
2023-01-28T16:31:22.845Z,99978.00
2023-01-28T16:33:50.346Z,99984.22
2023-01-28T16:36:19.332Z,99989.00
2023-01-28T16:38:47.244Z,99990.88
2023-01-28T16:41:16.117Z,99986.66
2023-01-28T16:43:43.310Z,100000.03
2023-01-28T16:46:11.597Z,100006.50
2023-01-28T16:48:38.814Z,99998.78
2023-01-28T16:51:06.020Z,100008.72
2023-01-28T16:53:33.767Z,100007.00
2023-01-28T16:56:01.122Z,100009.41
2023-01-28T16:58:28.308Z,100003.13
2023-01-28T17:00:56.263Z,100010.34
2023-01-28T17:03:23.993Z,100006.16
2023-01-28T17:05:51.497Z,100004.31
2023-01-28T17:08:19.078Z,99995.19
2023-01-28T17:10:47.778Z,99999.47
2023-01-28T17:13:15.484Z,100005.16
2023-01-28T17:15:43.464Z,100008.78
2023-01-28T17:18:11.498Z,100009.44
2023-01-28T17:20:40.428Z,100007.22
2023-01-28T17:23:09.111Z,100017.38
2023-01-28T17:25:36.960Z,100018.81
2023-01-28T17:28:04.288Z,100020.47
2023-01-28T17:30:31.809Z,100026.16
2023-01-28T17:32:59.068Z,100022.34
2023-01-28T17:35:26.366Z,100027.28
2023-01-28T17:37:54.253Z,100029.06
2023-01-28T17:40:21.868Z,100037.06
2023-01-28T17:42:49.663Z,100032.75
2023-01-28T17:45:18.004Z,100037.47
2023-01-28T17:47:45.630Z,100037.37
2023-01-28T17:50:12.959Z,100042.66
2023-01-28T17:52:41.264Z,100046.78
2023-01-28T17:55:10.393Z,100042.75
2023-01-28T17:57:37.677Z,100047.16
2023-01-28T18:00:06.175Z,100052.06
2023-01-28T18:02:39.037Z,100053.66
2023-01-28T18:05:06.949Z,100055.38
2023-01-28T18:07:34.198Z,100052.25
2023-01-28T18:10:02.648Z,100061.25
2023-01-28T18:12:30.348Z,100060.19
2023-01-28T18:14:57.622Z,100064.88
2023-01-28T18:17:29.769Z,100071.84
2023-01-28T18:19:57.528Z,100079.44
2023-01-28T18:22:24.951Z,100075.63
2023-01-28T18:24:52.379Z,100078.63
2023-01-28T18:27:21.014Z,100077.87
2023-01-28T18:29:48.289Z,100074.19
2023-01-28T18:32:15.749Z,100078.28
2023-01-28T18:34:43.295Z,100079.53
2023-01-28T18:37:10.479Z,100076.34
2023-01-28T18:39:38.013Z,100079.66
2023-01-28T18:42:05.830Z,100075.56
2023-01-28T18:44:33.217Z,100081.97
2023-01-28T18:47:00.477Z,100081.44
2023-01-28T18:49:28.149Z,100083.84
2023-01-28T18:51:55.283Z,100085.88
2023-01-28T18:54:23.900Z,100090.75
2023-01-28T18:56:51.559Z,100100.41
2023-01-28T18:59:19.093Z,100098.63
2023-01-28T19:01:47.979Z,100097.34
2023-01-28T19:04:16.295Z,100101.25
2023-01-28T19:06:43.864Z,100103.72
2023-01-28T19:09:12.275Z,100098.37
2023-01-28T19:11:40.984Z,100096.94
2023-01-28T19:14:14.673Z,100102.78
2023-01-28T19:16:42.590Z,100098.50
2023-01-28T19:19:09.943Z,100114.56
2023-01-28T19:21:38.006Z,100102.81
2023-01-28T19:24:09.209Z,100104.63
2023-01-28T19:26:37.021Z,100112.34
2023-01-28T19:29:06.347Z,100110.56
2023-01-28T19:31:34.106Z,100122.34
2023-01-28T19:34:01.614Z,100113.31
2023-01-28T19:36:31.049Z,100115.25
2023-01-28T19:38:59.536Z,100115.13
2023-01-28T19:41:28.129Z,100119.94
2023-01-28T19:43:56.155Z,100122.37
2023-01-28T19:46:23.689Z,100125.44
2023-01-28T19:48:51.031Z,100126.25
2023-01-28T19:51:18.347Z,100132.91
2023-01-28T19:53:46.131Z,100129.53
2023-01-28T19:56:13.936Z,100135.06
2023-01-28T19:58:42.487Z,100142.19
2023-01-28T20:01:14.403Z,100140.75
2023-01-28T20:03:42.090Z,100143.75
2023-01-28T20:06:15.954Z,100144.75
2023-01-28T20:08:43.732Z,100150.03
2023-01-28T20:11:14.679Z,100157.09
2023-01-28T20:13:43.019Z,100154.19
2023-01-28T20:16:14.489Z,100155.16
2023-01-28T20:18:41.759Z,100152.37
2023-01-28T20:21:09.037Z,100148.09
2023-01-28T20:23:36.585Z,100146.34
2023-01-28T20:26:03.929Z,100149.22
2023-01-28T20:28:31.236Z,100152.34
2023-01-28T20:31:00.601Z,100157.53
2023-01-28T20:33:27.925Z,100151.12
2023-01-28T20:36:00.407Z,100163.25
2023-01-28T20:38:27.959Z,100160.97
2023-01-28T20:40:55.207Z,100167.34
2023-01-28T20:43:22.439Z,100163.25
2023-01-28T20:45:50.305Z,100169.81
2023-01-28T20:48:17.605Z,100174.31
2023-01-28T20:50:44.746Z,100165.53
2023-01-28T20:53:12.414Z,100172.94
2023-01-28T20:55:39.759Z,100176.00
2023-01-28T20:58:07.124Z,100180.69
2023-01-28T21:00:34.609Z,100184.41
2023-01-28T21:03:02.150Z,100189.25
2023-01-28T21:05:29.392Z,100194.62
2023-01-28T21:07:56.958Z,100192.09
2023-01-28T21:10:24.447Z,100192.09
2023-01-28T21:12:51.656Z,100191.81
2023-01-28T21:15:19.264Z,100188.47
2023-01-28T21:17:46.509Z,100185.91
2023-01-28T21:20:13.886Z,100190.06
2023-01-28T21:22:41.532Z,100197.75
2023-01-28T21:25:08.861Z,100197.16
2023-01-28T21:27:36.237Z,100201.56
2023-01-28T21:30:05.152Z,100200.53
2023-01-28T21:32:32.399Z,100206.78
2023-01-28T21:34:59.656Z,100202.00
2023-01-28T21:37:27.207Z,100204.00
2023-01-28T21:39:54.425Z,100214.28
2023-01-28T21:42:21.749Z,100207.56
2023-01-28T21:44:49.431Z,100204.72
2023-01-28T21:47:17.817Z,100204.53
2023-01-28T21:49:45.022Z,100205.97
2023-01-28T21:52:13.111Z,100204.78
2023-01-28T21:54:40.316Z,100199.66
2023-01-28T21:57:07.525Z,100194.59
2023-01-28T21:59:38.184Z,100198.59
2023-01-28T22:02:06.395Z,100205.81
2023-01-28T22:04:35.004Z,100202.31
2023-01-28T22:07:02.725Z,100197.56
2023-01-28T22:09:30.167Z,100200.69
2023-01-28T22:11:57.666Z,100201.25
2023-01-28T22:14:25.006Z,100209.44
2023-01-28T22:16:52.364Z,100207.25
2023-01-28T22:19:19.844Z,100206.91
2023-01-28T22:21:47.225Z,100209.91
2023-01-28T22:24:16.276Z,100207.41
2023-01-28T22:26:44.573Z,100203.50
2023-01-28T22:29:12.044Z,100211.62
2023-01-28T22:31:39.435Z,100216.53
2023-01-28T22:34:07.318Z,100212.19
2023-01-28T22:36:34.935Z,100209.91
2023-01-28T22:39:02.622Z,100213.44
2023-01-28T22:41:30.158Z,100206.56
2023-01-28T22:43:57.413Z,100219.44
2023-01-28T22:46:24.684Z,100219.13
2023-01-28T22:48:52.774Z,100223.94
2023-01-28T22:51:20.829Z,100226.25
2023-01-28T22:53:48.405Z,100219.28
2023-01-28T22:56:16.373Z,100227.31
2023-01-28T22:58:44.279Z,100217.34
2023-01-28T23:01:11.472Z,100227.66
2023-01-28T23:03:38.989Z,100234.34
2023-01-28T23:06:06.172Z,100234.88
2023-01-28T23:08:33.943Z,100233.16
2023-01-28T23:11:02.040Z,100228.34
2023-01-28T23:13:52.411Z,100236.00
2023-01-28T23:16:38.388Z,100233.50
2023-01-28T23:19:38.079Z,100235.72
2023-01-28T23:22:24.132Z,100237.25
2023-01-28T23:24:51.341Z,100244.69
2023-01-28T23:27:19.134Z,100240.72
2023-01-28T23:29:46.520Z,100238.88
2023-01-28T23:32:13.995Z,100246.38
2023-01-28T23:34:44.411Z,100245.88
2023-01-28T23:37:12.992Z,100245.34
2023-01-28T23:39:40.417Z,100244.69
2023-01-28T23:42:11.757Z,100249.75
2023-01-28T23:44:39.032Z,100251.44
2023-01-28T23:47:06.313Z,100238.81
2023-01-28T23:49:33.926Z,100244.06
2023-01-28T23:52:01.609Z,100240.19
2023-01-28T23:54:28.789Z,100236.06
2023-01-28T23:56:56.247Z,100231.00
2023-01-28T23:59:23.379Z,100234.19
